Boise, ID (83714)

9:14 PM MDT on October 24, 2014 (GMT -0600)
Original West Boise | Change Station
CLOSE
Current Station
Personal Weather Station
Location: Boise, ID
Elevation: 2659 ft
Nearby Weather Stations

Elev 2659 ft 43.65 °N, 116.32 °W | Updated 5 seconds ago

Clear
Clear
50.4 °F
Feels Like 50.4 °F
N
0.0
Wind Variable Wind from West
Gusts 0.0 mph

Today
High -- | Low -- °F
--% Chance of Precip.
Yesterday
High -- | Low -- °F
Precip. -- in
8:10 AM 6:47 PM
New Moon, 2% visible
Pressure 29.94 in
Visibility 9.0 miles
Clouds Clear
Dew Point 48 °F
Humidity 93%
Rainfall 0.04 in
Snow Depth 0 in
UV 0 out of 12
Pollen 1.40 out of 12
Ozone Good
PM2.5 Good
Flu Activity No Activity
METAR KBOI 250253Z 00000KT 9SM CLR 12/09 A2995 RMK AO2 SLP137 T01220094 58003

More Conditions Fewer Conditions

Pressure 29.94 in
Visibility 9.0 miles
Clouds Clear
Dew Point 48 °F
Humidity 93%
Rainfall 0.04 in
Snow Depth 0 in
UV 0 out of 12
Pollen 1.40 out of 12
Ozone Good
PM2.5 Good
Flu Activity No Activity
METAR KBOI 250253Z 00000KT 9SM CLR 12/09 A2995 RMK AO2 SLP137 T01220094 58003

More Conditions Fewer Conditions

10-Day Weather Forecast

Almanac

Astronomy

Oct. 24, 2014 Rise Set
Actual Time 8:10 AM MDT 6:47 PM MDT
Civil Twilight 7:41 AM MDT 7:16 PM MDT
Nautical Twilight 7:07 AM MDT 7:50 PM MDT
Astronomical Twilight 6:34 AM MDT 8:23 PM MDT
Moon 8:55 AM MDT (10/24) 7:28 PM MDT (10/24)
Length of Visible Light 11h 35m
Length of Day
10h 36m
Tomorrow will be 2m 46s shorter.
New Moon, 2% of the Moon is Illuminated
Today
New Moon
Oct 30
First Quarter
Nov 6
Full
Nov 14
Last Quarter
Nov 22
New

Today's Extremes

State Highs State Lows

Community

WunderPhotos

Upload Photos

1,764,763 photos uploaded!

Nearby

Air Quality

  Air Quality AQ Index Pollutant
Yesterday Good
OZONE
Yesterday Good
PM10
Current Good
PM2.5
Current Good
OZONE
Friday Good
OZONE
Saturday Good
OZONE
Sunday Good
OZONE
Monday Good
OZONE
Tuesday Good
OZONE

Snow Depth

Station Depth Elevation
Bogus Basin 0 in 6340 ft
Trinity Mountain 1 in 7770 ft
Van Wyck 0 in 4920 ft
Jackson Peak 0 in 7070 ft
Atlanta Summit 0 in 7580 ft

Earthquake Activity

City Distance Mag. Time & Date
No recent earthquake activity has been reported nearby.
Minimum magnitude displayed is 2.5.

Coastal Water Temperatures

Place Temperature
No Stations Reporting

Nearby Weather Stations